Time;durP1;ratioP1;P1;durP2;ratioP2;P2;SDS_P1;SDS_P2;PMS_P1;PMS_P2;Temp;Humidity;BMP_temperature;BMP_pressure;BME280_temperature;BME280_humidity;BME280_pressure;Samples;Min_cycle;Max_cycle;Signal;HPM_P1;HPM_P2
2023/06/21 00:00:15;;;;;;;12.60;8.40;;;;;;;22.11;62.84;95523.22;4991312;28;20194;-83
2023/06/21 00:02:42;;;;;;;9.85;7.97;;;;;;;22.02;63.59;95525.31;4997625;28;20222;-84
2023/06/21 00:05:08;;;;;;;10.57;8.55;;;;;;;22.02;64.02;95533.25;4970704;28;20189;-83
2023/06/21 00:07:33;;;;;;;9.50;8.52;;;;;;;21.87;65.06;95532.78;5004434;28;20190;-83
2023/06/21 00:09:59;;;;;;;9.02;8.10;;;;;;;21.94;64.17;95533.53;5001376;28;20680;-84
2023/06/21 00:12:25;;;;;;;12.70;9.02;;;;;;;21.80;65.23;95527.53;4996770;28;20755;-84
2023/06/21 00:14:50;;;;;;;10.38;9.23;;;;;;;21.59;66.22;95526.13;4991184;28;20235;-84
2023/06/21 00:17:16;;;;;;;9.10;8.27;;;;;;;21.82;65.39;95525.50;4982291;28;20188;-83
2023/06/21 00:19:41;;;;;;;9.15;8.05;;;;;;;21.75;65.68;95530.84;4959049;28;20196;-83
2023/06/21 00:22:07;;;;;;;8.85;7.25;;;;;;;21.65;65.80;95530.53;4992431;28;20272;-84
2023/06/21 00:24:32;;;;;;;11.35;8.52;;;;;;;21.47;67.14;95535.78;4994869;28;20236;-83
2023/06/21 00:26:57;;;;;;;9.73;8.55;;;;;;;21.42;66.71;95527.69;4999326;28;20194;-84
2023/06/21 00:29:23;;;;;;;12.27;8.95;;;;;;;21.30;67.62;95532.06;4983801;28;20193;-84
2023/06/21 00:31:48;;;;;;;10.68;9.13;;;;;;;21.29;67.44;95527.75;4984024;28;20188;-83
2023/06/21 00:34:14;;;;;;;11.23;9.10;;;;;;;21.30;67.60;95539.97;4971877;28;20237;-83
2023/06/21 00:36:43;;;;;;;13.38;9.65;;;;;;;21.31;67.81;95549.50;4997644;28;20227;-83
2023/06/21 00:39:09;;;;;;;12.85;8.85;;;;;;;21.32;67.90;95562.50;4973749;28;20188;-84
2023/06/21 00:41:35;;;;;;;10.05;8.93;;;;;;;21.23;69.47;95553.19;4991678;28;20563;-84
2023/06/21 00:44:00;;;;;;;11.55;8.70;;;;;;;21.21;69.54;95555.25;4998383;28;20203;-83
2023/06/21 00:46:26;;;;;;;10.32;8.90;;;;;;;21.29;68.94;95557.66;4991796;28;20203;-84
2023/06/21 00:48:51;;;;;;;11.40;8.82;;;;;;;21.27;69.10;95564.16;4986092;28;20200;-83
2023/06/21 00:51:16;;;;;;;15.88;9.35;;;;;;;21.28;68.68;95565.78;5012613;28;20203;-83
2023/06/21 00:53:42;;;;;;;13.90;9.60;;;;;;;21.23;69.03;95557.66;4990484;28;20212;-84
2023/06/21 00:56:07;;;;;;;10.32;8.70;;;;;;;21.19;68.73;95563.34;4994748;28;20198;-83
2023/06/21 00:58:33;;;;;;;9.93;8.38;;;;;;;21.20;68.43;95562.34;4970136;28;20185;-84
2023/06/21 01:00:59;;;;;;;10.70;9.07;;;;;;;21.12;68.87;95556.53;4976721;28;20195;-84
2023/06/21 01:03:26;;;;;;;8.85;7.95;;;;;;;21.08;69.42;95565.88;4983097;28;20223;-83
2023/06/21 01:06:24;;;;;;;13.90;8.82;;;;;;;21.12;69.20;95561.81;4983217;28;20542;-84
2023/06/21 01:08:49;;;;;;;9.80;8.85;;;;;;;21.08;69.04;95564.03;4992633;28;20195;-83
2023/06/21 01:11:24;;;;;;;9.93;8.68;;;;;;;21.08;68.91;95561.41;4996517;28;20183;-83
2023/06/21 01:13:58;;;;;;;10.75;8.80;;;;;;;21.05;68.80;95561.84;4992325;28;20218;-83
2023/06/21 01:16:27;;;;;;;10.15;9.15;;;;;;;21.08;68.78;95564.03;4994705;28;20187;-83
2023/06/21 01:18:53;;;;;;;10.48;9.05;;;;;;;21.03;68.68;95563.88;4989578;28;20185;-84
2023/06/21 01:21:22;;;;;;;12.20;8.68;;;;;;;20.96;68.88;95568.38;4968528;28;20736;-83
2023/06/21 01:24:13;;;;;;;10.43;8.77;;;;;;;20.99;68.22;95583.78;4991422;28;20547;-84
2023/06/21 01:27:01;;;;;;;10.63;9.13;;;;;;;20.97;68.53;95564.72;4995808;28;20191;-84
2023/06/21 01:29:28;;;;;;;10.50;9.32;;;;;;;21.00;68.02;95566.13;4994090;28;20952;-84
2023/06/21 01:31:54;;;;;;;9.98;8.07;;;;;;;20.99;67.52;95562.66;4996782;28;20180;-83
2023/06/21 01:34:20;;;;;;;10.30;8.40;;;;;;;20.96;67.72;95571.03;4994559;28;20204;-84
2023/06/21 01:36:45;;;;;;;10.20;8.80;;;;;;;20.94;67.63;95575.72;4975259;28;20695;-83
2023/06/21 01:39:11;;;;;;;9.18;8.27;;;;;;;21.00;66.97;95571.41;4982597;28;20184;-83
2023/06/21 01:41:37;;;;;;;12.77;8.77;;;;;;;21.03;66.80;95576.28;5012448;28;20616;-83
2023/06/21 01:44:03;;;;;;;8.05;7.15;;;;;;;21.01;66.15;95581.75;4973324;28;20207;-83
2023/06/21 01:46:29;;;;;;;11.68;8.75;;;;;;;21.05;65.97;95587.44;4972117;28;20188;-84
2023/06/21 01:48:55;;;;;;;10.23;8.48;;;;;;;21.02;65.84;95599.19;4986965;28;20244;-83
2023/06/21 01:51:21;;;;;;;10.10;7.88;;;;;;;21.04;65.56;95597.19;4989681;28;20183;-83
2023/06/21 01:53:47;;;;;;;8.45;7.65;;;;;;;21.00;65.52;95603.88;4965576;28;20234;-83
2023/06/21 01:56:16;;;;;;;9.43;7.40;;;;;;;21.04;65.41;95601.66;4996913;28;20262;-84
2023/06/21 01:58:41;;;;;;;9.70;7.20;;;;;;;20.98;65.51;95603.28;4984933;28;20189;-83
2023/06/21 02:01:07;;;;;;;11.70;8.50;;;;;;;21.05;65.34;95604.06;4994230;28;20199;-84
2023/06/21 02:03:33;;;;;;;10.98;7.55;;;;;;;21.06;65.07;95610.97;4986532;28;20216;-83
2023/06/21 02:06:03;;;;;;;11.05;7.75;;;;;;;21.11;64.15;95605.84;4991987;28;20196;-83
2023/06/21 02:08:30;;;;;;;7.03;6.43;;;;;;;21.19;63.47;95615.34;4986243;28;20291;-83
2023/06/21 02:10:55;;;;;;;8.35;7.20;;;;;;;21.24;63.38;95612.91;4997103;28;20179;-83
2023/06/21 02:13:21;;;;;;;7.88;6.43;;;;;;;21.29;62.95;95614.94;4990346;28;20218;-83
2023/06/21 02:15:46;;;;;;;7.53;6.38;;;;;;;21.36;62.55;95618.34;4989584;28;20195;-84
2023/06/21 02:18:12;;;;;;;8.32;6.65;;;;;;;21.38;62.91;95622.41;4995430;28;20184;-83
2023/06/21 02:20:37;;;;;;;9.27;6.10;;;;;;;21.38;62.45;95619.78;4989842;28;20179;-84
2023/06/21 02:23:03;;;;;;;8.32;6.80;;;;;;;21.42;62.35;95623.59;4992739;28;20212;-83
2023/06/21 02:25:28;;;;;;;8.25;6.82;;;;;;;21.45;61.88;95627.63;4988872;28;20192;-83
2023/06/21 02:27:53;;;;;;;6.63;6.03;;;;;;;21.47;61.54;95618.50;4997053;28;20274;-84
2023/06/21 02:30:19;;;;;;;11.80;6.63;;;;;;;21.44;61.74;95620.72;4988066;28;20216;-83
2023/06/21 02:32:44;;;;;;;6.90;6.18;;;;;;;21.43;61.91;95627.03;4973056;28;20219;-83
2023/06/21 02:35:10;;;;;;;7.68;6.43;;;;;;;21.37;61.44;95633.97;4987100;28;20183;-84
2023/06/21 02:37:35;;;;;;;8.68;5.78;;;;;;;21.36;62.14;95635.00;5002341;28;20615;-84
2023/06/21 02:40:09;;;;;;;8.48;6.00;;;;;;;21.38;61.89;95634.78;4994766;28;20187;-84
2023/06/21 02:42:35;;;;;;;8.18;5.95;;;;;;;21.36;61.73;95626.25;5015544;28;20611;-83
2023/06/21 02:45:00;;;;;;;9.40;6.35;;;;;;;21.37;61.82;95625.25;4986726;28;20213;-84
2023/06/21 02:47:25;;;;;;;8.13;6.70;;;;;;;21.35;62.06;95628.09;4996612;28;20192;-83
2023/06/21 02:49:51;;;;;;;7.65;6.40;;;;;;;21.38;62.00;95618.94;4990015;28;20278;-83
2023/06/21 02:52:16;;;;;;;7.70;6.63;;;;;;;21.38;61.97;95629.50;4997418;28;20398;-82
2023/06/21 02:54:41;;;;;;;8.75;6.63;;;;;;;21.36;61.86;95637.63;4983751;28;20697;-83
2023/06/21 02:57:06;;;;;;;7.95;6.25;;;;;;;21.38;62.52;95648.81;4999316;28;20607;-83
2023/06/21 02:59:32;;;;;;;7.18;5.85;;;;;;;21.33;62.91;95650.47;4988949;28;20715;-83
2023/06/21 03:01:59;;;;;;;8.05;7.13;;;;;;;21.37;63.09;95659.56;5000210;28;20187;-83
2023/06/21 03:04:24;;;;;;;7.53;6.78;;;;;;;21.36;63.28;95657.97;4999378;28;20219;-84
2023/06/21 03:06:50;;;;;;;8.85;7.10;;;;;;;21.36;63.57;95664.06;4998087;28;20207;-83
2023/06/21 03:09:15;;;;;;;9.10;6.90;;;;;;;21.38;64.09;95677.03;4973946;28;20204;-84
2023/06/21 03:11:41;;;;;;;7.63;6.82;;;;;;;21.38;63.82;95677.03;4989314;28;20274;-83
2023/06/21 03:14:06;;;;;;;8.73;6.93;;;;;;;21.47;63.74;95686.38;4989881;28;20709;-83
2023/06/21 03:16:31;;;;;;;8.95;7.50;;;;;;;21.49;63.39;95697.53;4982731;28;20518;-83
2023/06/21 03:18:57;;;;;;;9.77;7.18;;;;;;;21.47;63.73;95723.34;5000311;28;20215;-85
2023/06/21 03:21:25;;;;;;;9.05;7.68;;;;;;;21.17;65.83;95796.97;4986037;28;20252;-83
2023/06/21 03:23:50;;;;;;;10.10;8.63;;;;;;;20.88;68.01;95819.38;4983611;28;20208;-83
2023/06/21 03:26:15;;;;;;;16.38;9.48;;;;;;;20.70;72.33;95829.75;4998348;28;20198;-84
2023/06/21 03:28:42;;;;;;;11.52;7.65;;;;;;;20.37;74.74;95812.84;4981164;28;20223;-84
2023/06/21 03:31:07;;;;;;;9.82;7.00;;;;;;;20.25;75.71;95803.13;4985543;28;20643;-84
2023/06/21 03:33:33;;;;;;;11.55;6.90;;;;;;;19.88;79.29;95810.56;4988495;28;20745;-85
2023/06/21 03:35:58;;;;;;;9.20;6.05;;;;;;;19.58;81.11;95773.16;4979923;28;20251;-86
2023/06/21 03:38:23;;;;;;;10.98;7.03;;;;;;;19.85;81.70;95739.78;4986789;28;20272;-85
2023/06/21 03:40:49;;;;;;;7.35;6.53;;;;;;;19.78;82.07;95728.41;4993619;28;20187;-84
2023/06/21 03:43:15;;;;;;;9.75;6.70;;;;;;;19.82;82.56;95750.75;4984878;28;20286;-84
2023/06/21 03:45:40;;;;;;;9.57;7.18;;;;;;;19.81;82.79;95772.84;4990933;28;20184;-84
2023/06/21 03:48:06;;;;;;;8.55;7.68;;;;;;;19.68;84.91;95759.63;4959468;28;20192;-85
2023/06/21 03:50:32;;;;;;;9.15;7.20;;;;;;;19.71;85.27;95741.59;4986623;28;20642;-85
2023/06/21 03:52:57;;;;;;;10.38;7.57;;;;;;;19.52;86.41;95714.19;4988274;28;20238;-86
2023/06/21 03:55:23;;;;;;;8.70;7.80;;;;;;;19.56;86.37;95713.75;4997299;28;20176;-87
2023/06/21 03:57:48;;;;;;;8.43;7.43;;;;;;;19.73;85.18;95712.41;5019940;28;20176;-88
2023/06/21 04:00:14;;;;;;;9.45;7.13;;;;;;;19.68;86.61;95707.72;5010721;28;20171;-87
2023/06/21 04:02:39;;;;;;;8.13;7.38;;;;;;;19.61;87.66;95698.19;5015518;28;20201;-87
2023/06/21 04:05:06;;;;;;;11.65;7.38;;;;;;;19.57;89.08;95704.88;4999686;28;20615;-86
2023/06/21 04:07:31;;;;;;;10.05;6.88;;;;;;;19.48;88.80;95689.22;5009201;28;20252;-85
2023/06/21 04:09:56;;;;;;;7.15;6.22;;;;;;;19.46;87.91;95688.63;4982872;28;20866;-87
2023/06/21 04:12:22;;;;;;;8.82;5.15;;;;;;;19.30;86.13;95696.88;4960369;28;20201;-87
2023/06/21 04:14:47;;;;;;;6.13;4.05;;;;;;;19.46;83.33;95688.63;4975753;28;20205;-86
2023/06/21 04:17:12;;;;;;;6.63;3.55;;;;;;;19.40;82.68;95689.41;4990551;28;20216;-86
2023/06/21 04:19:38;;;;;;;8.20;3.53;;;;;;;19.32;81.37;95692.22;4982367;28;20211;-88
2023/06/21 04:22:03;;;;;;;4.60;3.08;;;;;;;19.37;80.51;95705.63;4995071;28;20689;-85
2023/06/21 04:24:28;;;;;;;9.18;3.92;;;;;;;19.51;79.97;95716.97;4992456;28;20218;-85
2023/06/21 04:26:57;;;;;;;5.53;3.90;;;;;;;19.49;81.34;95724.28;4978385;28;20189;-85
2023/06/21 04:29:23;;;;;;;7.13;4.55;;;;;;;19.41;82.04;95722.63;4977123;28;20196;-85
2023/06/21 04:31:51;;;;;;;5.93;4.38;;;;;;;19.39;82.67;95722.03;4964475;28;20192;-85
2023/06/21 04:34:17;;;;;;;6.03;3.92;;;;;;;19.59;82.45;95730.00;4983467;28;20294;-85
2023/06/21 04:36:42;;;;;;;7.22;4.20;;;;;;;19.68;84.20;95728.00;4979303;28;20202;-85
2023/06/21 04:39:08;;;;;;;4.75;4.28;;;;;;;19.65;84.67;95726.59;4983418;28;20191;-85
2023/06/21 04:41:36;;;;;;;6.82;4.63;;;;;;;19.60;85.62;95730.81;4956689;28;20651;-85
2023/06/21 04:44:01;;;;;;;8.20;4.57;;;;;;;19.65;86.45;95739.75;4978253;28;20196;-85
2023/06/21 04:46:27;;;;;;;5.78;4.53;;;;;;;19.71;85.90;95743.44;4959077;28;20184;-85
2023/06/21 04:48:53;;;;;;;6.97;4.13;;;;;;;19.35;86.90;95733.97;4976601;28;20189;-85
2023/06/21 04:51:18;;;;;;;7.18;4.43;;;;;;;19.59;86.83;95737.91;4981086;28;20291;-86
2023/06/21 04:53:45;;;;;;;5.45;4.72;;;;;;;19.68;86.65;95739.34;4979726;28;20577;-86
2023/06/21 04:56:12;;;;;;;6.03;4.57;;;;;;;19.78;86.40;95736.31;4971737;28;20677;-85
2023/06/21 04:58:40;;;;;;;6.95;4.88;;;;;;;19.80;86.56;95732.50;4978115;28;20199;-86
2023/06/21 05:01:06;;;;;;;8.18;4.97;;;;;;;19.75;87.55;95739.38;4981113;28;20188;-85
2023/06/21 05:03:32;;;;;;;5.65;4.55;;;;;;;19.92;86.84;95753.78;4976583;28;20224;-85
2023/06/21 05:05:59;;;;;;;6.95;4.70;;;;;;;19.79;87.79;95751.97;4974665;28;20194;-84
2023/06/21 05:08:24;;;;;;;11.75;5.00;;;;;;;19.84;87.09;95748.72;4984277;28;20188;-84
2023/06/21 05:10:49;;;;;;;5.78;4.55;;;;;;;19.88;87.46;95739.41;4976654;28;20697;-84
2023/06/21 05:13:15;;;;;;;5.90;4.47;;;;;;;19.92;86.51;95748.53;4996692;28;20678;-85
2023/06/21 05:15:40;;;;;;;6.90;5.00;;;;;;;19.86;86.96;95757.22;4981148;28;20197;-85
2023/06/21 05:18:05;;;;;;;9.50;5.75;;;;;;;19.73;89.60;95747.47;4962608;28;20192;-84
2023/06/21 05:20:31;;;;;;;7.25;5.00;;;;;;;19.94;88.35;95751.75;5000273;28;20645;-85
2023/06/21 05:22:56;;;;;;;7.60;5.20;;;;;;;19.97;88.49;95769.03;5001817;28;20180;-84
2023/06/21 05:25:22;;;;;;;7.85;5.20;;;;;;;20.02;87.87;95767.38;4994341;28;20275;-85
2023/06/21 05:27:47;;;;;;;7.25;5.22;;;;;;;19.99;88.22;95756.44;5026754;28;20247;-84
2023/06/21 05:30:12;;;;;;;8.10;4.95;;;;;;;20.13;86.79;95751.97;5010041;28;20176;-85
2023/06/21 05:32:38;;;;;;;6.50;5.57;;;;;;;19.87;86.91;95698.22;5006660;28;20203;-84
2023/06/21 05:35:03;;;;;;;7.20;5.50;;;;;;;19.80;89.08;95677.16;5004176;28;20177;-84
2023/06/21 05:37:29;;;;;;;6.38;4.72;;;;;;;19.72;88.28;95729.25;5017566;28;20219;-84
2023/06/21 05:39:54;;;;;;;6.60;5.30;;;;;;;19.82;87.17;95729.66;5017385;28;20184;-84
2023/06/21 05:42:19;;;;;;;7.05;5.30;;;;;;;19.92;86.56;95732.72;5016694;28;20187;-85
2023/06/21 05:44:45;;;;;;;7.90;4.95;;;;;;;19.94;84.83;95754.41;5013359;28;20255;-84
2023/06/21 05:47:10;;;;;;;8.18;4.82;;;;;;;20.05;85.88;95768.81;4983265;28;20658;-85
2023/06/21 05:49:35;;;;;;;8.32;5.70;;;;;;;20.00;86.44;95763.34;4978742;28;20207;-83
2023/06/21 05:52:01;;;;;;;6.68;4.90;;;;;;;20.34;85.40;95765.00;4994396;28;20188;-84
2023/06/21 05:54:26;;;;;;;5.97;5.30;;;;;;;20.42;84.84;95767.44;4977503;28;20223;-82
2023/06/21 05:56:52;;;;;;;6.82;5.50;;;;;;;20.82;83.27;95765.56;4976887;28;20700;-83
2023/06/21 05:59:18;;;;;;;9.63;5.70;;;;;;;20.91;81.78;95772.25;4984611;28;20196;-83
2023/06/21 06:01:43;;;;;;;6.70;5.75;;;;;;;20.84;82.16;95765.38;4975489;28;20187;-83
2023/06/21 06:04:09;;;;;;;6.75;5.28;;;;;;;20.78;82.86;95766.22;4988807;28;20227;-82
2023/06/21 06:06:39;;;;;;;6.10;5.50;;;;;;;20.80;82.22;95764.16;4989375;28;20226;-84
2023/06/21 06:09:05;;;;;;;6.80;5.13;;;;;;;20.63;83.16;95769.88;5011743;28;20202;-83
2023/06/21 06:11:30;;;;;;;7.20;5.78;;;;;;;20.70;83.78;95767.22;5000099;28;20182;-83
2023/06/21 06:13:55;;;;;;;7.60;6.03;;;;;;;20.82;83.32;95767.41;4980755;28;20251;-83
2023/06/21 06:16:21;;;;;;;6.25;5.63;;;;;;;20.78;83.69;95774.94;4995305;28;20192;-83
2023/06/21 06:18:46;;;;;;;7.22;5.93;;;;;;;20.81;83.41;95769.22;4984510;28;20195;-84
2023/06/21 06:21:12;;;;;;;7.47;5.97;;;;;;;20.69;84.41;95764.78;4988465;28;20187;-83
2023/06/21 06:23:37;;;;;;;6.85;6.10;;;;;;;20.65;84.58;95769.66;4988071;28;20696;-83
2023/06/21 06:26:02;;;;;;;7.55;6.45;;;;;;;20.71;84.12;95781.22;4984773;28;20583;-83
2023/06/21 06:28:27;;;;;;;7.13;6.38;;;;;;;20.87;82.92;95792.16;4971437;28;20236;-83
2023/06/21 06:30:53;;;;;;;10.43;7.82;;;;;;;20.61;84.60;95795.66;4990912;28;20599;-83
2023/06/21 06:33:18;;;;;;;7.88;6.60;;;;;;;20.62;83.98;95799.91;4972574;28;20260;-82
2023/06/21 06:35:43;;;;;;;7.38;6.32;;;;;;;20.67;83.20;95798.47;4962713;28;20227;-83
2023/06/21 06:38:09;;;;;;;7.25;6.55;;;;;;;20.87;83.48;95801.91;4980087;28;20200;-83
2023/06/21 06:40:34;;;;;;;7.55;6.40;;;;;;;20.68;83.92;95798.28;4988326;28;20192;-82
2023/06/21 06:43:00;;;;;;;10.13;6.28;;;;;;;20.77;84.22;95807.63;4990529;28;20263;-82
2023/06/21 06:45:25;;;;;;;6.90;5.82;;;;;;;20.95;83.35;95804.34;4984482;28;20230;-82
2023/06/21 06:47:50;;;;;;;7.97;5.88;;;;;;;21.20;82.28;95807.94;4990849;28;20192;-83
2023/06/21 06:50:16;;;;;;;8.70;6.35;;;;;;;21.14;81.52;95800.84;4991552;28;20188;-83
2023/06/21 06:52:41;;;;;;;8.20;5.97;;;;;;;21.51;80.54;95811.72;4993672;28;20265;-83
2023/06/21 06:55:07;;;;;;;7.47;6.07;;;;;;;21.76;78.68;95806.56;4992325;28;20234;-83
2023/06/21 06:57:32;;;;;;;8.07;5.75;;;;;;;22.89;76.18;95807.44;4981398;28;20538;-83
2023/06/21 06:59:58;;;;;;;9.23;4.95;;;;;;;24.30;67.39;95797.59;4992050;28;20192;-83
2023/06/21 07:02:23;;;;;;;7.22;4.75;;;;;;;24.85;66.54;95798.16;4990883;28;20965;-83
2023/06/21 07:04:48;;;;;;;7.05;5.43;;;;;;;24.70;65.53;95797.00;4976535;28;21034;-82
2023/06/21 07:07:13;;;;;;;6.05;4.70;;;;;;;24.27;69.39;95804.16;4990508;28;20591;-83
2023/06/21 07:09:39;;;;;;;5.18;4.68;;;;;;;25.98;60.41;95817.31;4985824;28;20191;-84
2023/06/21 07:12:05;;;;;;;5.38;4.68;;;;;;;26.73;59.63;95822.38;4972947;28;20197;-82
2023/06/21 07:14:30;;;;;;;5.10;3.90;;;;;;;26.04;60.79;95820.88;4972033;28;20207;-82
2023/06/21 07:16:55;;;;;;;4.15;3.38;;;;;;;25.49;60.26;95811.53;4992525;28;20188;-82
2023/06/21 07:19:21;;;;;;;4.35;3.40;;;;;;;24.56;62.40;95828.28;4987415;28;20192;-82
2023/06/21 07:21:46;;;;;;;3.70;3.30;;;;;;;23.86;65.82;95826.16;4979838;28;20236;-83
2023/06/21 07:24:12;;;;;;;6.07;3.05;;;;;;;24.14;66.98;95830.91;4989484;28;20204;-82
2023/06/21 07:26:40;;;;;;;3.92;3.53;;;;;;;24.24;66.55;95823.19;4989345;28;20188;-82
2023/06/21 07:29:05;;;;;;;3.40;3.10;;;;;;;23.95;66.71;95821.38;4967861;28;20240;-82
2023/06/21 07:31:34;;;;;;;4.65;3.08;;;;;;;23.79;67.80;95812.19;4992871;28;20191;-82
2023/06/21 07:34:00;;;;;;;5.65;4.28;;;;;;;23.69;67.52;95807.41;4989335;28;20218;-82
2023/06/21 07:36:26;;;;;;;7.95;6.78;;;;;;;23.15;76.54;95793.13;4988854;28;20553;-81
2023/06/21 07:38:51;;;;;;;9.13;7.47;;;;;;;23.31;76.49;95802.31;4997128;28;20196;-83
2023/06/21 07:41:16;;;;;;;6.60;5.55;;;;;;;23.62;73.63;95805.88;4990590;28;20188;-82
2023/06/21 07:43:42;;;;;;;6.40;5.65;;;;;;;23.63;71.82;95810.94;4991012;28;20208;-82
2023/06/21 07:46:07;;;;;;;8.57;6.10;;;;;;;23.31;72.90;95815.56;5003467;28;20511;-83
2023/06/21 07:48:34;;;;;;;6.20;5.30;;;;;;;23.93;71.87;95821.56;5002398;28;20593;-83
2023/06/21 07:50:59;;;;;;;7.53;5.00;;;;;;;25.68;62.04;95815.63;5001997;28;20192;-82
2023/06/21 07:53:25;;;;;;;7.85;5.13;;;;;;;27.00;57.59;95830.50;4994482;28;20244;-82
2023/06/21 07:55:50;;;;;;;7.80;3.85;;;;;;;26.98;56.70;95839.81;4990871;28;20191;-83
2023/06/21 07:58:15;;;;;;;4.43;3.25;;;;;;;26.73;56.23;95841.03;4997828;28;20198;-83
2023/06/21 08:00:41;;;;;;;5.10;3.60;;;;;;;26.68;57.24;95840.97;4999351;28;20194;-84
2023/06/21 08:03:06;;;;;;;3.83;3.40;;;;;;;26.48;55.70;95845.91;4990143;28;20215;-83
2023/06/21 08:05:31;;;;;;;4.75;3.08;;;;;;;25.92;56.76;95851.00;5002578;28;20191;-83
2023/06/21 08:08:01;;;;;;;4.75;3.70;;;;;;;25.58;58.12;95858.00;5000676;28;20268;-82
2023/06/21 08:10:26;;;;;;;4.03;3.63;;;;;;;25.65;60.40;95873.81;5000557;28;20188;-83
2023/06/21 08:12:52;;;;;;;3.75;3.17;;;;;;;25.14;60.10;95878.81;4998135;28;20287;-84
2023/06/21 08:15:17;;;;;;;3.70;3.20;;;;;;;24.82;61.73;95886.25;4985729;28;20208;-84
2023/06/21 08:17:42;;;;;;;5.45;3.33;;;;;;;24.57;62.73;95889.09;5000959;28;20207;-83
2023/06/21 08:20:08;;;;;;;5.10;3.50;;;;;;;24.17;64.75;95883.50;4997964;28;20770;-84
2023/06/21 08:22:34;;;;;;;4.72;3.50;;;;;;;24.21;63.56;95891.84;4995462;28;20192;-84
2023/06/21 08:24:59;;;;;;;4.18;3.20;;;;;;;24.00;65.36;95888.59;4994764;28;20211;-83
2023/06/21 08:27:24;;;;;;;4.28;3.28;;;;;;;24.12;65.01;95885.19;4990427;28;20243;-84
2023/06/21 08:29:50;;;;;;;3.83;3.45;;;;;;;24.04;65.17;95888.19;4991958;28;20195;-83
2023/06/21 08:32:16;;;;;;;4.68;3.30;;;;;;;23.89;65.80;95884.06;4988123;28;20188;-82
2023/06/21 08:34:41;;;;;;;4.05;3.30;;;;;;;23.76;66.26;95892.16;4996785;28;20215;-83
2023/06/21 08:37:06;;;;;;;4.57;3.63;;;;;;;23.70;66.25;95890.41;4997902;28;20741;-83
2023/06/21 08:39:32;;;;;;;5.18;3.30;;;;;;;23.52;66.88;95877.13;4996968;28;20653;-83
2023/06/21 08:41:57;;;;;;;4.15;3.42;;;;;;;23.50;67.63;95881.81;4998285;28;20708;-83
2023/06/21 08:44:23;;;;;;;3.22;2.92;;;;;;;23.37;67.76;95870.34;4989008;28;20207;-84
2023/06/21 08:46:51;;;;;;;5.68;3.80;;;;;;;23.23;67.38;95874.13;4997220;28;20203;-84
2023/06/21 08:49:18;;;;;;;3.88;3.00;;;;;;;23.14;68.04;95864.84;4997493;28;20187;-84
2023/06/21 08:51:46;;;;;;;5.40;3.30;;;;;;;23.08;69.91;95857.78;4972008;28;20309;-84
2023/06/21 08:54:12;;;;;;;4.50;3.58;;;;;;;23.14;69.41;95864.84;4975802;28;20717;-84
2023/06/21 08:56:47;;;;;;;6.47;3.67;;;;;;;22.81;71.78;95867.78;4997146;28;20233;-84
2023/06/21 08:59:19;;;;;;;4.90;3.55;;;;;;;22.58;69.83;95866.50;4975691;28;20191;-85
2023/06/21 09:01:54;;;;;;;4.15;3.75;;;;;;;22.56;72.28;95855.31;4996921;28;20190;-84
2023/06/21 09:04:22;;;;;;;5.13;3.75;;;;;;;22.38;73.46;95846.50;4966097;28;20223;-84
2023/06/21 09:06:48;;;;;;;4.63;3.55;;;;;;;22.17;74.69;95829.94;4965394;28;20189;-84
2023/06/21 09:09:14;;;;;;;5.32;4.03;;;;;;;22.12;78.87;95823.66;4977715;28;20202;-84
2023/06/21 09:11:41;;;;;;;5.10;3.70;;;;;;;22.08;79.79;95817.16;4987721;28;20607;-84
2023/06/21 09:14:06;;;;;;;6.07;3.95;;;;;;;21.76;83.90;95822.41;4981184;28;20219;-84
2023/06/21 09:16:32;;;;;;;6.10;4.82;;;;;;;21.52;88.78;95808.06;4991225;28;20726;-85
2023/06/21 09:18:57;;;;;;;6.28;5.68;;;;;;;21.38;91.15;95807.31;4978643;28;20230;-83
2023/06/21 09:21:23;;;;;;;8.10;5.93;;;;;;;21.47;90.89;95813.19;4975329;28;20259;-84
2023/06/21 09:23:49;;;;;;;9.45;5.40;;;;;;;21.45;88.81;95810.72;4980726;28;20209;-83
2023/06/21 09:26:14;;;;;;;6.90;5.10;;;;;;;21.32;88.40;95807.34;4978612;28;20211;-84
2023/06/21 09:28:40;;;;;;;5.97;5.38;;;;;;;21.01;89.99;95797.41;4995662;28;20191;-83
2023/06/21 09:31:05;;;;;;;6.72;5.45;;;;;;;21.05;89.15;95798.63;4988683;28;20188;-84
2023/06/21 09:33:31;;;;;;;10.63;5.13;;;;;;;20.90;91.83;95809.41;4998195;28;20535;-84
2023/06/21 09:35:57;;;;;;;5.80;5.18;;;;;;;21.05;91.13;95802.09;5007991;28;20216;-84
2023/06/21 09:38:24;;;;;;;10.52;7.05;;;;;;;20.87;91.49;95820.41;4995135;28;20172;-83
2023/06/21 09:40:50;;;;;;;8.52;5.55;;;;;;;20.78;93.00;95835.63;5002516;28;20210;-84
2023/06/21 09:43:17;;;;;;;7.35;5.50;;;;;;;20.91;92.46;95866.47;5000847;28;20298;-84
2023/06/21 09:45:42;;;;;;;6.43;5.38;;;;;;;21.02;92.90;95872.97;4994702;28;20212;-86
2023/06/21 09:48:13;;;;;;;7.47;5.47;;;;;;;21.08;91.88;95872.97;4993915;28;20193;-86
2023/06/21 09:50:43;;;;;;;9.00;5.47;;;;;;;21.01;92.35;95881.91;4986396;28;20181;-86
2023/06/21 09:53:11;;;;;;;7.50;5.25;;;;;;;21.06;92.09;95888.19;4980468;28;20339;-85
2023/06/21 09:55:43;;;;;;;6.22;4.88;;;;;;;21.09;90.80;95889.59;4993594;28;20196;-84
2023/06/21 09:58:08;;;;;;;7.70;5.43;;;;;;;20.99;90.52;95908.50;4993944;28;20248;-85
2023/06/21 10:00:35;;;;;;;8.48;5.60;;;;;;;20.95;91.07;95907.31;4975393;28;20223;-85
2023/06/21 10:03:01;;;;;;;6.53;5.75;;;;;;;20.91;91.97;95898.16;4985093;28;20257;-85
2023/06/21 10:05:26;;;;;;;8.65;5.45;;;;;;;20.96;92.06;95900.19;4993404;28;20195;-85
2023/06/21 10:07:51;;;;;;;8.02;5.45;;;;;;;20.92;91.86;95899.78;4986473;28;20196;-85
2023/06/21 10:10:18;;;;;;;7.85;5.25;;;;;;;21.02;91.10;95900.16;4995123;28;20215;-85
2023/06/21 10:12:54;;;;;;;5.95;5.35;;;;;;;21.11;90.52;95896.31;4994727;28;20200;-84
2023/06/21 10:15:19;;;;;;;5.75;5.18;;;;;;;21.24;89.96;95897.31;4997019;28;20196;-84
2023/06/21 10:17:48;;;;;;;7.55;5.47;;;;;;;21.06;89.89;95911.16;4966549;28;20203;-84
2023/06/21 10:20:14;;;;;;;6.45;4.68;;;;;;;21.20;90.04;95910.94;4986736;28;20690;-84
2023/06/21 10:22:45;;;;;;;4.78;4.38;;;;;;;21.54;87.93;95922.28;4983909;28;20184;-83
2023/06/21 10:25:10;;;;;;;6.47;5.15;;;;;;;21.47;88.23;95917.03;4979128;28;20558;-84
2023/06/21 10:27:37;;;;;;;6.95;5.18;;;;;;;21.77;86.86;95925.28;4976018;28;20187;-84
2023/06/21 10:30:04;;;;;;;7.25;4.55;;;;;;;21.70;86.28;95926.31;4983990;28;20282;-83
2023/06/21 10:32:31;;;;;;;5.38;4.45;;;;;;;21.62;85.66;95930.00;4972806;28;20243;-84
2023/06/21 10:35:17;;;;;;;7.22;4.45;;;;;;;21.78;85.30;95931.38;4993076;28;20724;-83
2023/06/21 10:37:50;;;;;;;5.25;4.63;;;;;;;21.96;85.17;95933.34;4998337;28;20192;-83
2023/06/21 10:40:17;;;;;;;6.30;4.32;;;;;;;22.36;82.70;95933.22;4982967;28;20276;-82
2023/06/21 10:42:44;;;;;;;4.95;4.22;;;;;;;22.55;81.72;95932.28;4985479;28;20194;-82
2023/06/21 10:45:10;;;;;;;5.78;4.45;;;;;;;22.76;78.40;95924.00;4979007;28;20193;-84
2023/06/21 10:47:37;;;;;;;5.38;4.43;;;;;;;22.67;77.27;95927.13;4964169;28;20861;-82
2023/06/21 10:50:02;;;;;;;5.18;4.45;;;;;;;23.23;75.91;95924.47;4992191;28;20179;-83
2023/06/21 10:52:29;;;;;;;6.05;4.28;;;;;;;23.10;74.18;95921.94;4986673;28;20214;-82
2023/06/21 10:54:57;;;;;;;4.80;4.18;;;;;;;23.78;71.57;95921.13;4968652;28;20230;-82
2023/06/21 10:57:25;;;;;;;5.05;4.38;;;;;;;23.70;72.32;95930.19;4992307;28;20245;-83
2023/06/21 10:59:52;;;;;;;4.85;4.18;;;;;;;23.42;72.18;95925.34;4966198;28;20212;-82
2023/06/21 11:02:17;;;;;;;4.93;4.03;;;;;;;23.89;70.76;95923.84;4978402;28;20649;-82
2023/06/21 11:05:16;;;;;;;6.80;4.40;;;;;;;24.21;69.83;95921.84;4994144;28;20274;-82
2023/06/21 11:07:58;;;;;;;6.25;4.40;;;;;;;24.41;70.61;95932.22;4994885;28;20180;-84
2023/06/21 11:10:30;;;;;;;5.55;4.38;;;;;;;24.92;67.80;95930.06;4994269;28;20270;-84
2023/06/21 11:12:56;;;;;;;4.40;4.00;;;;;;;24.79;66.00;95929.22;4989294;28;20231;-84
2023/06/21 11:15:24;;;;;;;6.82;4.70;;;;;;;25.11;65.04;95932.44;4994849;28;20724;-83
2023/06/21 11:17:59;;;;;;;4.38;3.97;;;;;;;25.52;65.80;95938.69;4990446;28;20193;-81
2023/06/21 11:20:25;;;;;;;6.30;4.13;;;;;;;25.89;61.17;95944.59;4991272;28;20251;-83
2023/06/21 11:22:55;;;;;;;4.28;3.88;;;;;;;26.07;60.87;95940.16;5010317;28;20180;-82
2023/06/21 11:25:21;;;;;;;6.15;4.53;;;;;;;26.39;60.23;95938.69;5008986;28;20193;-82
2023/06/21 11:28:20;;;;;;;5.85;4.13;;;;;;;26.92;58.24;95942.03;4995683;28;20204;-83